createdAt,value
2018-04-20T00:01:01.656Z,56.50
2018-04-20T00:06:29.821Z,56.60
2018-04-20T00:11:57.968Z,56.80
2018-04-20T00:17:26.110Z,57.10
2018-04-20T00:22:55.027Z,57.50
2018-04-20T00:28:23.173Z,57.60
2018-04-20T00:33:51.335Z,57.60
2018-04-20T00:39:19.480Z,57.70
2018-04-20T00:44:47.616Z,57.80
2018-04-20T00:50:16.551Z,57.90
2018-04-20T00:55:46.422Z,58.00
2018-04-20T01:01:15.332Z,58.30
2018-04-20T01:06:43.478Z,58.30
2018-04-20T01:12:12.400Z,58.40
2018-04-20T01:17:42.257Z,59.30
2018-04-20T01:23:10.391Z,58.70
2018-04-20T01:28:40.232Z,59.10
2018-04-20T01:34:08.382Z,59.10
2018-04-20T01:39:37.479Z,59.30
2018-04-20T01:45:05.622Z,60.10
2018-04-20T01:50:34.721Z,59.60
2018-04-20T01:56:02.874Z,59.60
2018-04-20T02:01:31.780Z,60.00
2018-04-20T02:07:03.922Z,59.90
2018-04-20T02:12:32.074Z,60.20
2018-04-20T02:18:00.209Z,60.10
2018-04-20T02:23:29.337Z,60.40
2018-04-20T02:28:57.475Z,61.60
2018-04-20T02:34:25.635Z,61.70
2018-04-20T02:39:53.763Z,61.90
2018-04-20T02:45:21.910Z,62.10
2018-04-20T02:50:50.045Z,62.10
2018-04-20T02:56:18.164Z,62.40
2018-04-20T03:01:46.326Z,62.40
2018-04-20T03:07:14.464Z,62.40
2018-04-20T03:12:42.591Z,62.60
2018-04-20T03:18:11.487Z,62.90
2018-04-20T03:23:39.618Z,62.90
2018-04-20T03:29:07.762Z,63.10
2018-04-20T03:34:35.888Z,63.30
2018-04-20T03:40:04.789Z,63.50
2018-04-20T03:45:32.962Z,63.60
2018-04-20T03:51:01.121Z,63.60
2018-04-20T03:56:29.353Z,63.90
2018-04-20T04:01:57.518Z,63.90
2018-04-20T04:07:26.335Z,64.10
2018-04-20T04:12:54.496Z,64.00
2018-04-20T04:18:40.430Z,64.10
2018-04-20T04:24:26.335Z,64.30
2018-04-20T04:29:55.569Z,64.30
2018-04-20T04:35:24.883Z,64.20
2018-04-20T04:40:53.121Z,64.20
2018-04-20T04:46:27.100Z,64.30
2018-04-20T04:51:56.010Z,64.20
2018-04-20T04:57:24.167Z,64.20
2018-04-20T05:02:53.151Z,63.90
2018-04-20T05:08:21.417Z,64.00
2018-04-20T05:13:50.322Z,62.80
2018-04-20T05:19:18.495Z,62.70
2018-04-20T05:24:47.390Z,62.40
2018-04-20T05:30:15.698Z,62.20
2018-04-20T05:35:43.841Z,61.90
2018-04-20T05:41:11.997Z,61.50
2018-04-20T05:46:40.176Z,61.00
2018-04-20T05:52:08.280Z,60.60
2018-04-20T05:57:36.435Z,60.10
2018-04-20T06:03:05.434Z,59.60
2018-04-20T06:08:33.591Z,59.60
2018-04-20T06:14:02.554Z,59.20
2018-04-20T06:19:30.722Z,58.80
2018-04-20T06:24:58.996Z,58.50
2018-04-20T06:30:27.164Z,58.20
2018-04-20T06:35:55.309Z,57.90
2018-04-20T06:41:24.222Z,57.20
2018-04-20T06:46:52.363Z,57.10
2018-04-20T06:52:21.267Z,56.60
2018-04-20T06:57:49.419Z,56.50
2018-04-20T07:03:18.369Z,56.30
2018-04-20T07:08:46.516Z,56.00
2018-04-20T07:14:14.652Z,55.70
2018-04-20T07:19:42.817Z,55.60
2018-04-20T07:25:11.738Z,54.80
2018-04-20T07:30:39.920Z,54.70
2018-04-20T07:36:08.839Z,54.30
2018-04-20T07:41:37.029Z,54.20
2018-04-20T07:47:05.144Z,54.30
2018-04-20T07:52:33.313Z,54.10
2018-04-20T07:58:01.519Z,54.00
2018-04-20T08:03:29.710Z,52.80
2018-04-20T08:08:57.906Z,52.50
2018-04-20T08:14:26.073Z,52.30
2018-04-20T08:19:54.273Z,52.20
2018-04-20T08:25:22.409Z,51.50
2018-04-20T08:30:51.353Z,50.40
2018-04-20T08:36:19.516Z,50.30
2018-04-20T08:41:47.666Z,49.30
2018-04-20T08:47:15.818Z,49.10
2018-04-20T08:52:43.951Z,48.60
2018-04-20T08:58:12.125Z,47.60
2018-04-20T09:03:40.282Z,46.50
2018-04-20T09:09:08.428Z,46.20
2018-04-20T09:14:36.590Z,46.30
2018-04-20T09:20:05.509Z,46.20
2018-04-20T09:25:33.655Z,46.10
2018-04-20T09:31:02.600Z,45.20
2018-04-20T09:36:30.825Z,45.20
2018-04-20T09:41:58.955Z,44.30
2018-04-20T09:47:27.129Z,44.40
2018-04-20T09:52:55.289Z,44.10
2018-04-20T09:58:23.446Z,43.80
2018-04-20T10:04:01.497Z,43.80
2018-04-20T10:09:29.692Z,43.50
2018-04-20T10:14:57.847Z,41.70
2018-04-20T10:20:26.013Z,42.50
2018-04-20T10:25:54.148Z,40.50
2018-04-20T10:31:22.288Z,40.00
2018-04-20T10:36:50.416Z,39.60
2018-04-20T10:42:18.568Z,38.80
2018-04-20T10:47:46.721Z,38.30
2018-04-20T10:53:14.859Z,37.70
2018-04-20T10:58:43.010Z,36.80
2018-04-20T11:04:11.161Z,36.80
2018-04-20T11:09:40.090Z,37.00
2018-04-20T11:15:08.988Z,36.60
2018-04-20T11:20:37.138Z,36.50
2018-04-20T11:26:05.279Z,35.50
2018-04-20T11:31:34.192Z,34.80
2018-04-20T11:37:02.350Z,34.80
2018-04-20T11:42:30.563Z,34.10
2018-04-20T11:47:58.735Z,35.20
2018-04-20T11:53:26.882Z,35.50
2018-04-20T11:58:55.033Z,33.90
2018-04-20T12:04:23.164Z,31.60
2018-04-20T12:09:51.300Z,33.20
2018-04-20T12:15:19.468Z,32.50
2018-04-20T12:20:48.393Z,32.40
2018-04-20T12:26:17.368Z,31.80
2018-04-20T12:31:45.514Z,31.50
2018-04-20T12:37:13.692Z,31.30
2018-04-20T12:42:41.854Z,30.10
2018-04-20T12:48:10.224Z,29.50
2018-04-20T12:53:39.144Z,28.40
2018-04-20T12:59:07.291Z,28.30
2018-04-20T13:04:35.439Z,28.70
2018-04-20T13:10:03.623Z,28.70
2018-04-20T13:15:32.595Z,27.10
2018-04-20T13:21:00.742Z,27.00
2018-04-20T13:26:28.948Z,27.50
2018-04-20T13:31:57.107Z,27.30
2018-04-20T13:37:25.250Z,27.40
2018-04-20T13:42:54.228Z,27.00
2018-04-20T13:48:22.363Z,27.00
2018-04-20T13:53:50.504Z,27.30
2018-04-20T13:59:18.697Z,26.90
2018-04-20T14:04:46.884Z,25.10
2018-04-20T14:10:15.030Z,24.60
2018-04-20T14:15:43.189Z,24.70
2018-04-20T14:21:12.101Z,22.10
2018-04-20T14:26:40.304Z,21.90
2018-04-20T14:32:08.444Z,18.80
2018-04-20T14:37:36.609Z,17.10
2018-04-20T14:43:04.752Z,15.90
2018-04-20T14:48:33.661Z,14.20
2018-04-20T14:54:01.820Z,14.20
2018-04-20T14:59:30.008Z,14.40
2018-04-20T15:04:58.986Z,15.40
2018-04-20T15:10:27.210Z,15.30
2018-04-20T15:15:55.388Z,16.50
2018-04-20T15:21:23.584Z,17.90
2018-04-20T15:26:53.437Z,19.80
2018-04-20T15:32:22.375Z,20.00
2018-04-20T15:37:51.302Z,19.80
2018-04-20T15:43:19.489Z,19.80
2018-04-20T15:48:47.668Z,19.80
2018-04-20T15:54:16.593Z,23.30
2018-04-20T15:59:45.532Z,24.70
2018-04-20T16:05:14.480Z,25.50
2018-04-20T16:10:42.641Z,25.50
2018-04-20T16:16:10.807Z,26.50
2018-04-20T16:21:38.952Z,26.80
2018-04-20T16:27:07.119Z,27.70
2018-04-20T16:32:35.383Z,27.80
2018-04-20T16:38:04.332Z,28.70
2018-04-20T16:43:32.504Z,28.70
2018-04-20T16:49:00.658Z,29.00
2018-04-20T16:54:28.873Z,29.40
2018-04-20T16:59:57.824Z,30.20
2018-04-20T17:05:26.009Z,30.30
2018-04-20T17:10:54.206Z,30.70
2018-04-20T17:16:22.378Z,31.50
2018-04-20T17:21:51.321Z,32.60
2018-04-20T17:27:20.251Z,32.50
2018-04-20T17:32:49.190Z,33.60
2018-04-20T17:38:18.093Z,34.30
2018-04-20T17:43:46.241Z,34.20
2018-04-20T17:49:15.173Z,35.40
2018-04-20T17:54:44.120Z,36.50
2018-04-20T18:00:13.048Z,36.40
2018-04-20T18:05:42.924Z,36.70
2018-04-20T18:11:11.886Z,36.70
2018-04-20T18:16:40.029Z,37.30
2018-04-20T18:22:09.109Z,36.50
2018-04-20T18:27:38.042Z,37.00
2018-04-20T18:33:11.472Z,36.40
2018-04-20T18:38:39.644Z,37.10
2018-04-20T18:44:07.791Z,36.80
2018-04-20T18:49:35.967Z,36.90
2018-04-20T18:55:04.516Z,36.80
2018-04-20T19:00:32.824Z,36.90
2018-04-20T19:06:01.979Z,36.30
2018-04-20T19:11:30.153Z,36.00
2018-04-20T19:16:58.302Z,36.40
2018-04-20T19:22:26.509Z,35.80
2018-04-20T19:27:55.503Z,36.00
2018-04-20T19:33:23.673Z,36.00
2018-04-20T19:38:52.610Z,36.40
2018-04-20T19:44:21.560Z,36.60
2018-04-20T19:49:49.718Z,36.50
2018-04-20T19:55:17.894Z,36.80
2018-04-20T20:00:46.840Z,37.20
2018-04-20T20:06:14.977Z,37.20
2018-04-20T20:11:43.185Z,37.80
2018-04-20T20:17:12.954Z,39.20
2018-04-20T20:22:45.033Z,39.10
2018-04-20T20:28:13.956Z,40.20
2018-04-20T20:33:42.110Z,40.30
2018-04-20T20:39:10.252Z,40.70
2018-04-20T20:44:38.421Z,41.30
2018-04-20T20:50:07.344Z,42.50
2018-04-20T20:55:35.538Z,42.50
2018-04-20T21:01:03.732Z,43.40
2018-04-20T21:06:31.875Z,43.70
2018-04-20T21:12:00.084Z,44.10
2018-04-20T21:17:28.346Z,44.90
2018-04-20T21:22:56.529Z,45.60
2018-04-20T21:28:25.629Z,46.20
2018-04-20T21:33:53.781Z,46.60
2018-04-20T21:39:21.916Z,46.90
2018-04-20T21:44:51.000Z,48.10
2018-04-20T21:50:19.909Z,50.20
2018-04-20T21:55:48.060Z,50.30
2018-04-20T22:01:17.009Z,50.40
2018-04-20T22:06:46.023Z,50.90
2018-04-20T22:12:14.951Z,51.40
2018-04-20T22:17:43.117Z,51.00
2018-04-20T22:23:11.264Z,51.70
2018-04-20T22:28:39.433Z,52.00
2018-04-20T22:34:07.606Z,52.00
2018-04-20T22:39:35.745Z,52.40
2018-04-20T22:45:03.902Z,52.60
2018-04-20T22:50:32.829Z,53.30
2018-04-20T22:56:00.968Z,53.30
2018-04-20T23:01:29.131Z,53.00
2018-04-20T23:06:57.284Z,53.10
2018-04-20T23:12:25.456Z,53.30
2018-04-20T23:17:53.605Z,53.50
2018-04-20T23:23:21.962Z,53.70
2018-04-20T23:28:50.175Z,53.80
2018-04-20T23:34:19.099Z,54.40
2018-04-20T23:39:47.236Z,54.30
2018-04-20T23:45:16.145Z,55.30
2018-04-20T23:50:44.285Z,55.30
2018-04-20T23:56:12.424Z,55.00
